Bingham, Maine
Current Conditions -  °F | °C
As of 9:55 AM on Friday 19 Dec 2014 (Local Time) from KWVL Reporting Station
Broken Clouds Broken Clouds  
Wind Chill: 20°   Ceiling: 3000
Heat Index: 30°   Visibility: 10mi
Dew Point: 18°   Wind: 13mph
Humidity: 60%   Direction: 330°NNW
Pressure: 29.89"   Gusts: 20mph
Location:  45.06°N, 69.88°W
Report Text: KWVL 191455Z 33011G17KT 10SM BKN030 M01/M08 A2989 RMK AO1 52020
Loading
Personal Weather Stations






























Interactive Weather Map New forecast layout! Learn more

10-Day Weather Forecast

Advertisements
Track Severe Weather on mobile